Time;durP1;ratioP1;P1;durP2;ratioP2;P2;SDS_P1;SDS_P2;PMS_P1;PMS_P2;Temp;Humidity;BMP_temperature;BMP_pressure;BME280_temperature;BME280_humidity;BME280_pressure;Samples;Min_cycle;Max_cycle;Signal;HPM_P1;HPM_P2
2021/04/25 00:00:48;;;;;;;2.13;1.90;;;17.20;48.20;;;;;;5093761;28;20170;-72
2021/04/25 00:03:13;;;;;;;2.30;2.03;;;17.10;48.10;;;;;;5092409;28;20205;-68
2021/04/25 00:05:39;;;;;;;2.50;2.22;;;17.10;48.70;;;;;;5093726;28;20172;-71
2021/04/25 00:08:04;;;;;;;2.08;1.92;;;17.20;48.20;;;;;;5094218;28;20193;-68
2021/04/25 00:10:30;;;;;;;2.33;2.13;;;17.10;48.10;;;;;;5093292;28;20257;-70
2021/04/25 00:12:55;;;;;;;4.50;2.55;;;17.10;48.20;;;;;;5094091;28;20176;-69
2021/04/25 00:15:22;;;;;;;2.47;2.28;;;17.10;48.20;;;;;;5093646;28;20170;-67
2021/04/25 00:17:48;;;;;;;2.20;2.00;;;17.10;48.20;;;;;;5093045;28;20185;-70
2021/04/25 00:20:13;;;;;;;2.53;2.33;;;17.10;48.20;;;;;;5075849;28;20633;-70
2021/04/25 00:22:39;;;;;;;2.95;2.63;;;17.10;48.10;;;;;;5074875;28;20170;-69
2021/04/25 00:25:05;;;;;;;2.42;2.22;;;17.10;48.20;;;;;;5093734;28;20173;-69
2021/04/25 00:27:31;;;;;;;2.72;2.50;;;17.10;48.20;;;;;;5075156;28;20720;-68
2021/04/25 00:29:57;;;;;;;2.95;2.65;;;17.10;48.20;;;;;;5075088;28;20253;-69
2021/04/25 00:32:22;;;;;;;2.17;1.98;;;17.10;48.20;;;;;;5093478;28;20190;-71
2021/04/25 00:34:48;;;;;;;2.38;2.17;;;17.10;48.20;;;;;;5093159;28;20193;-66
2021/04/25 00:37:13;;;;;;;2.33;2.13;;;17.10;48.20;;;;;;5092876;28;20178;-67
2021/04/25 00:39:39;;;;;;;2.33;2.13;;;17.10;48.20;;;;;;5075203;28;20162;-70
2021/04/25 00:42:05;;;;;;;2.75;2.20;;;17.00;48.10;;;;;;5075347;28;20201;-70
2021/04/25 00:44:31;;;;;;;2.40;2.20;;;17.10;48.20;;;;;;5092389;28;20225;-67
2021/04/25 00:46:56;;;;;;;2.40;2.20;;;17.00;48.10;;;;;;5093363;28;20515;-71
2021/04/25 00:49:22;;;;;;;2.30;2.00;;;17.00;48.20;;;;;;5093371;28;20186;-72
2021/04/25 00:51:47;;;;;;;2.38;2.17;;;17.00;48.20;;;;;;5092485;28;20668;-67
2021/04/25 00:54:13;;;;;;;2.17;2.00;;;17.00;48.20;;;;;;5074991;28;20216;-68
2021/04/25 00:56:39;;;;;;;2.50;2.30;;;17.00;48.20;;;;;;5058314;28;20170;-72
2021/04/25 00:59:04;;;;;;;2.40;2.10;;;17.00;48.20;;;;;;5074757;28;20173;-72
2021/04/25 01:01:30;;;;;;;2.95;1.90;;;17.00;48.80;;;;;;5075016;28;20178;-73
2021/04/25 01:03:56;;;;;;;2.63;2.42;;;17.00;48.20;;;;;;5074947;28;20201;-67
2021/04/25 01:06:21;;;;;;;2.92;2.40;;;17.00;48.20;;;;;;5057814;28;20490;-68
2021/04/25 01:08:47;;;;;;;2.63;2.42;;;17.00;48.20;;;;;;5058132;28;20515;-67
2021/04/25 01:11:13;;;;;;;2.60;2.40;;;17.00;48.20;;;;;;5058298;28;20174;-69
2021/04/25 01:13:39;;;;;;;2.42;2.22;;;17.00;48.20;;;;;;5073813;28;20169;-69
2021/04/25 01:16:05;;;;;;;2.67;2.47;;;17.00;48.30;;;;;;5074970;28;20528;-69
2021/04/25 01:18:31;;;;;;;2.42;2.20;;;17.00;48.20;;;;;;5074955;28;20181;-69
2021/04/25 01:21:00;;;;;;;2.78;2.53;;;16.90;48.20;;;;;;5074314;28;20165;-70
2021/04/25 01:23:26;;;;;;;2.58;2.38;;;16.90;48.30;;;;;;5074966;28;20213;-71
2021/04/25 01:25:52;;;;;;;3.30;2.78;;;16.90;48.30;;;;;;5073913;28;20235;-68
2021/04/25 01:28:17;;;;;;;2.90;2.60;;;16.90;48.30;;;;;;5092689;28;20221;-71
2021/04/25 01:30:43;;;;;;;2.88;2.50;;;16.90;48.30;;;;;;5092633;28;20535;-66
2021/04/25 01:33:08;;;;;;;3.00;2.30;;;16.90;48.40;;;;;;5092224;28;20173;-66
2021/04/25 01:35:34;;;;;;;2.85;2.60;;;16.90;48.40;;;;;;5074281;28;20611;-66
2021/04/25 01:37:59;;;;;;;2.72;2.45;;;16.90;48.30;;;;;;5075149;28;20171;-68
2021/04/25 01:40:26;;;;;;;2.58;2.38;;;16.90;48.30;;;;;;5092171;28;20223;-67
2021/04/25 01:42:55;;;;;;;2.80;2.58;;;16.90;48.40;;;;;;5092455;28;20166;-67
2021/04/25 01:45:21;;;;;;;2.28;2.08;;;16.90;48.40;;;;;;5058518;28;20553;-69
2021/04/25 01:47:52;;;;;;;2.60;2.40;;;16.90;49.10;;;;;;5073911;28;20201;-68
2021/04/25 01:50:18;;;;;;;2.35;2.15;;;16.90;49.10;;;;;;5058435;28;20656;-67
2021/04/25 01:52:44;;;;;;;3.03;2.72;;;16.90;48.40;;;;;;5092355;28;20174;-71
2021/04/25 01:55:10;;;;;;;3.10;2.67;;;16.90;48.40;;;;;;5057279;28;20203;-69
2021/04/25 01:57:36;;;;;;;2.70;2.50;;;16.90;48.50;;;;;;5092500;28;20219;-71
2021/04/25 02:00:02;;;;;;;2.72;2.50;;;16.80;48.50;;;;;;5074525;28;20170;-71
2021/04/25 02:02:28;;;;;;;2.65;2.40;;;16.80;48.50;;;;;;5073993;28;20174;-68
2021/04/25 02:04:54;;;;;;;2.78;2.50;;;16.80;48.50;;;;;;5057608;28;20213;-70
2021/04/25 02:07:19;;;;;;;3.17;2.65;;;16.80;48.50;;;;;;5092565;28;20215;-68
2021/04/25 02:09:45;;;;;;;2.42;2.22;;;16.80;48.50;;;;;;5091736;28;20174;-68
2021/04/25 02:12:11;;;;;;;3.05;2.65;;;16.80;48.50;;;;;;5057954;28;20271;-68
2021/04/25 02:14:37;;;;;;;2.47;2.28;;;16.80;48.50;;;;;;5057407;28;20170;-68
2021/04/25 02:17:03;;;;;;;2.28;2.08;;;16.80;48.50;;;;;;5091917;28;20257;-68
2021/04/25 02:19:28;;;;;;;2.63;2.42;;;16.80;48.50;;;;;;5074136;28;20625;-70
2021/04/25 02:21:54;;;;;;;2.88;2.35;;;16.80;48.50;;;;;;5074389;28;20170;-68
2021/04/25 02:24:19;;;;;;;2.65;2.45;;;16.80;48.50;;;;;;5091623;28;20229;-68
2021/04/25 02:26:45;;;;;;;2.28;2.08;;;16.80;48.60;;;;;;5077085;28;20174;-68
2021/04/25 02:29:10;;;;;;;2.80;2.60;;;16.80;48.50;;;;;;5073572;28;20308;-66
2021/04/25 02:31:36;;;;;;;2.78;2.58;;;16.80;48.50;;;;;;5075422;28;20537;-65
2021/04/25 02:34:02;;;;;;;2.50;2.30;;;16.70;48.50;;;;;;5075642;28;20178;-65
2021/04/25 02:36:28;;;;;;;2.42;2.22;;;16.80;48.60;;;;;;5074762;28;20177;-67
2021/04/25 02:38:53;;;;;;;2.85;2.65;;;16.70;48.50;;;;;;5074357;28;20170;-68
2021/04/25 02:41:19;;;;;;;2.63;2.42;;;16.70;48.50;;;;;;5075580;28;20171;-68
2021/04/25 02:43:44;;;;;;;2.30;2.10;;;16.70;48.50;;;;;;5074366;28;20249;-72
2021/04/25 02:46:10;;;;;;;2.33;2.13;;;16.70;48.60;;;;;;5075802;28;20175;-68
2021/04/25 02:48:35;;;;;;;3.03;2.60;;;16.70;48.60;;;;;;5073951;28;20224;-66
2021/04/25 02:51:01;;;;;;;2.63;2.42;;;16.70;48.50;;;;;;5074795;28;20346;-68
2021/04/25 02:53:27;;;;;;;3.35;2.45;;;16.70;48.60;;;;;;5073960;28;20167;-70
2021/04/25 02:55:52;;;;;;;2.47;2.22;;;16.70;48.60;;;;;;5074826;28;20245;-69
2021/04/25 02:58:18;;;;;;;2.67;2.47;;;16.70;48.60;;;;;;5073607;28;20182;-72
2021/04/25 03:00:44;;;;;;;2.50;2.30;;;16.60;48.60;;;;;;5073664;28;20167;-70
2021/04/25 03:03:10;;;;;;;2.70;2.50;;;16.70;48.60;;;;;;5057502;28;20203;-71
2021/04/25 03:05:35;;;;;;;3.00;2.70;;;16.70;48.60;;;;;;5072832;28;20178;-71
2021/04/25 03:08:01;;;;;;;2.53;2.33;;;16.70;48.70;;;;;;5075131;28;20171;-69
2021/04/25 03:10:28;;;;;;;3.15;2.60;;;16.70;48.60;;;;;;5074994;28;20175;-67
2021/04/25 03:12:54;;;;;;;2.50;2.30;;;16.70;48.60;;;;;;5040076;28;20185;-68
2021/04/25 03:15:20;;;;;;;2.53;2.30;;;16.60;48.50;;;;;;5073810;28;20167;-71
2021/04/25 03:17:46;;;;;;;2.70;2.25;;;16.70;48.70;;;;;;5073365;28;20174;-70
2021/04/25 03:20:12;;;;;;;2.47;2.20;;;16.70;48.70;;;;;;5072927;28;20216;-69
2021/04/25 03:22:38;;;;;;;2.22;2.03;;;16.60;48.60;;;;;;5074500;28;20965;-70
2021/04/25 03:25:07;;;;;;;2.45;2.25;;;16.60;48.60;;;;;;5073493;28;20202;-69
2021/04/25 03:27:33;;;;;;;2.40;2.20;;;16.60;48.60;;;;;;5074022;28;20589;-68
2021/04/25 03:29:58;;;;;;;2.95;2.58;;;16.60;48.60;;;;;;5073423;28;20222;-71
2021/04/25 03:32:25;;;;;;;2.55;2.30;;;16.60;48.60;;;;;;5072919;28;20265;-69
2021/04/25 03:34:51;;;;;;;2.95;2.38;;;16.60;49.20;;;;;;5074254;28;20235;-69
2021/04/25 03:37:16;;;;;;;2.60;2.40;;;16.60;48.60;;;;;;5074114;28;20174;-67
2021/04/25 03:39:42;;;;;;;2.35;2.15;;;16.60;48.60;;;;;;5073525;28;20170;-68
2021/04/25 03:42:07;;;;;;;2.65;2.00;;;16.60;48.60;;;;;;5074384;28;20627;-69
2021/04/25 03:44:33;;;;;;;2.92;2.70;;;16.60;48.60;;;;;;5072443;28;20274;-71
2021/04/25 03:46:59;;;;;;;2.47;2.28;;;16.60;48.60;;;;;;5072859;28;20170;-68
2021/04/25 03:49:24;;;;;;;3.35;2.40;;;16.60;48.60;;;;;;5056578;28;20166;-70
2021/04/25 03:51:51;;;;;;;2.47;2.28;;;16.60;48.60;;;;;;5073855;28;20656;-67
2021/04/25 03:54:16;;;;;;;2.60;2.33;;;16.60;48.60;;;;;;5073451;28;20166;-68
2021/04/25 03:56:42;;;;;;;2.60;2.40;;;16.50;48.60;;;;;;5072561;28;20167;-71
2021/04/25 03:59:08;;;;;;;2.30;2.10;;;16.50;48.60;;;;;;5072864;28;20694;-70
2021/04/25 04:01:34;;;;;;;2.50;2.30;;;16.60;48.60;;;;;;5071897;28;20249;-68
2021/04/25 04:03:59;;;;;;;2.50;2.30;;;16.50;48.60;;;;;;5072597;28;20202;-67
2021/04/25 04:06:25;;;;;;;2.55;2.35;;;16.50;48.70;;;;;;5072679;28;20249;-68
2021/04/25 04:08:50;;;;;;;2.35;2.15;;;16.50;48.60;;;;;;5072960;28;20660;-69
2021/04/25 04:11:16;;;;;;;2.40;2.20;;;16.50;48.60;;;;;;5073879;28;20205;-69
2021/04/25 04:13:42;;;;;;;2.65;2.25;;;16.50;48.60;;;;;;5072374;28;20170;-68
2021/04/25 04:16:07;;;;;;;2.60;2.40;;;16.50;48.70;;;;;;5071946;28;20522;-70
2021/04/25 04:18:33;;;;;;;2.40;2.20;;;16.50;48.70;;;;;;5072108;28;20634;-68
2021/04/25 04:20:58;;;;;;;2.30;2.10;;;16.50;48.80;;;;;;5073454;28;20166;-70
2021/04/25 04:23:24;;;;;;;2.50;2.30;;;16.50;48.70;;;;;;5055014;28;20198;-71
2021/04/25 04:25:50;;;;;;;2.47;2.28;;;16.50;48.80;;;;;;5071982;28;20167;-71
2021/04/25 04:28:15;;;;;;;2.50;2.28;;;16.50;48.80;;;;;;5077802;28;20218;-68
2021/04/25 04:30:41;;;;;;;2.45;2.25;;;16.50;48.70;;;;;;5092963;28;20253;-66
2021/04/25 04:33:06;;;;;;;2.30;2.10;;;16.50;48.70;;;;;;5093728;28;20509;-68
2021/04/25 04:35:32;;;;;;;2.72;2.53;;;16.50;48.80;;;;;;5075078;28;20227;-66
2021/04/25 04:37:57;;;;;;;2.30;2.10;;;16.50;48.80;;;;;;5092981;28;20191;-69
2021/04/25 04:40:23;;;;;;;2.33;2.13;;;16.40;48.70;;;;;;5093451;28;20177;-68
2021/04/25 04:42:49;;;;;;;3.03;2.17;;;16.40;48.70;;;;;;5074418;28;20173;-69
2021/04/25 04:45:15;;;;;;;2.80;2.20;;;16.40;48.70;;;;;;5093410;28;20166;-68
2021/04/25 04:47:42;;;;;;;2.25;2.05;;;16.40;48.70;;;;;;5092606;28;20251;-70
2021/04/25 04:50:08;;;;;;;2.22;2.13;;;16.40;48.70;;;;;;5092774;28;20219;-69
2021/04/25 04:52:33;;;;;;;2.10;1.90;;;16.40;48.80;;;;;;5093072;28;20181;-69
2021/04/25 04:54:59;;;;;;;2.22;2.00;;;16.40;48.70;;;;;;5058304;28;20177;-68
2021/04/25 04:57:25;;;;;;;2.42;2.22;;;16.40;48.80;;;;;;5074844;28;20201;-68
2021/04/25 04:59:50;;;;;;;2.53;2.33;;;16.50;48.80;;;;;;5092864;28;20192;-72
2021/04/25 05:02:16;;;;;;;2.22;2.03;;;16.40;48.70;;;;;;5075210;28;20584;-71
2021/04/25 05:04:41;;;;;;;2.17;1.98;;;16.50;48.70;;;;;;5057458;28;20224;-66
2021/04/25 05:07:07;;;;;;;3.45;2.20;;;16.50;48.70;;;;;;5075207;28;20192;-68
2021/04/25 05:09:33;;;;;;;2.08;1.90;;;16.70;48.70;;;;;;5092775;28;20257;-68
2021/04/25 05:11:58;;;;;;;1.80;1.70;;;16.90;48.60;;;;;;5074444;28;20174;-68
2021/04/25 05:14:24;;;;;;;2.20;1.98;;;17.20;48.30;;;;;;5074939;28;20649;-68
2021/04/25 05:16:50;;;;;;;2.03;1.83;;;17.50;48.10;;;;;;5058252;28;20166;-68
2021/04/25 05:19:15;;;;;;;1.50;1.40;;;17.70;47.60;;;;;;5074399;28;20181;-69
2021/04/25 05:21:41;;;;;;;2.13;1.70;;;18.20;46.80;;;;;;5074752;28;20165;-68
2021/04/25 05:24:08;;;;;;;1.90;1.70;;;18.40;46.50;;;;;;5092685;28;20208;-70
2021/04/25 05:26:34;;;;;;;2.03;1.52;;;18.60;45.90;;;;;;5074252;28;20714;-69
2021/04/25 05:28:59;;;;;;;2.03;1.80;;;18.80;45.70;;;;;;5092889;28;20257;-67
2021/04/25 05:31:25;;;;;;;1.70;1.60;;;18.90;45.50;;;;;;5092945;28;20223;-72
2021/04/25 05:33:51;;;;;;;2.33;1.83;;;19.00;45.40;;;;;;5073882;28;20190;-67
2021/04/25 05:36:16;;;;;;;1.77;1.52;;;19.00;45.40;;;;;;5092932;28;20245;-70
2021/04/25 05:38:42;;;;;;;2.00;1.80;;;19.10;45.40;;;;;;5092608;28;20181;-67
2021/04/25 05:41:07;;;;;;;1.65;1.50;;;19.10;45.40;;;;;;5057590;28;20526;-70
2021/04/25 05:43:33;;;;;;;1.85;1.67;;;19.20;45.40;;;;;;5057560;28;20205;-68
2021/04/25 05:45:59;;;;;;;1.55;1.42;;;19.20;45.40;;;;;;5092600;28;20176;-67
2021/04/25 05:48:24;;;;;;;1.70;1.60;;;19.10;45.50;;;;;;5092503;28;20166;-72
2021/04/25 05:50:50;;;;;;;2.60;1.90;;;19.00;45.60;;;;;;5057637;28;20176;-70
2021/04/25 05:53:15;;;;;;;1.50;1.40;;;18.90;45.70;;;;;;5092286;28;20186;-71
2021/04/25 05:55:42;;;;;;;1.67;1.58;;;18.80;45.90;;;;;;5074069;28;20559;-72
2021/04/25 05:58:08;;;;;;;1.92;1.40;;;18.70;46.10;;;;;;5092717;28;20523;-71
2021/04/25 06:00:35;;;;;;;2.17;1.80;;;18.70;46.30;;;;;;5076601;28;20166;-68
2021/04/25 06:03:00;;;;;;;1.92;1.73;;;18.60;46.30;;;;;;5078636;28;20226;-71
2021/04/25 06:05:27;;;;;;;2.47;1.63;;;18.60;46.40;;;;;;5096513;28;20253;-73
2021/04/25 06:07:53;;;;;;;1.45;1.35;;;18.60;46.40;;;;;;5095861;28;20195;-68
2021/04/25 06:10:19;;;;;;;1.27;1.17;;;18.60;46.50;;;;;;5096422;28;20213;-70
2021/04/25 06:12:48;;;;;;;1.73;1.60;;;18.50;46.50;;;;;;5078031;28;20318;-71
2021/04/25 06:15:13;;;;;;;1.80;1.63;;;18.50;46.70;;;;;;5061751;28;20166;-69
2021/04/25 06:17:39;;;;;;;1.40;1.30;;;18.40;46.80;;;;;;5061481;28;20192;-68
2021/04/25 06:20:06;;;;;;;1.60;1.50;;;18.30;47.00;;;;;;5078083;28;20250;-72
2021/04/25 06:22:32;;;;;;;1.55;1.45;;;18.30;47.10;;;;;;5077365;28;20541;-70
2021/04/25 06:24:58;;;;;;;1.67;1.58;;;18.20;47.20;;;;;;5077779;28;20212;-69
2021/04/25 06:27:25;;;;;;;1.48;1.38;;;18.10;47.30;;;;;;5061223;28;20173;-71
2021/04/25 06:29:51;;;;;;;1.52;1.42;;;18.10;47.40;;;;;;5077100;28;20225;-71
2021/04/25 06:32:16;;;;;;;1.52;1.42;;;18.10;47.40;;;;;;5077777;28;20165;-65
2021/04/25 06:34:42;;;;;;;1.27;1.17;;;18.10;47.30;;;;;;5095611;28;20640;-66
2021/04/25 06:37:08;;;;;;;1.30;1.20;;;18.20;47.30;;;;;;5077241;28;20591;-70
2021/04/25 06:39:33;;;;;;;1.60;1.50;;;18.20;47.30;;;;;;5061092;28;20196;-69
2021/04/25 06:41:59;;;;;;;1.75;1.42;;;18.20;47.30;;;;;;5060894;28;20753;-70
2021/04/25 06:44:25;;;;;;;1.38;1.27;;;18.20;47.30;;;;;;5060211;28;20262;-68
2021/04/25 06:46:50;;;;;;;1.52;1.30;;;18.20;47.30;;;;;;5095398;28;20162;-70
2021/04/25 06:49:16;;;;;;;1.20;1.10;;;18.10;47.40;;;;;;5094644;28;20413;-64
2021/04/25 06:51:42;;;;;;;1.55;1.38;;;18.10;47.30;;;;;;5060068;28;20173;-66
2021/04/25 06:54:07;;;;;;;2.22;1.65;;;18.10;47.20;;;;;;5060619;28;20173;-73
2021/04/25 06:56:33;;;;;;;2.55;1.58;;;18.00;46.90;;;;;;5076487;28;20165;-66
2021/04/25 06:58:58;;;;;;;3.72;1.80;;;18.00;46.40;;;;;;5095375;28;20180;-67
2021/04/25 07:01:24;;;;;;;2.55;1.25;;;18.00;46.30;;;;;;5077183;28;20178;-68
2021/04/25 07:03:50;;;;;;;3.83;1.70;;;18.00;46.40;;;;;;5094313;28;20578;-66
2021/04/25 07:06:17;;;;;;;3.53;1.85;;;18.00;46.50;;;;;;5077468;28;20522;-70
2021/04/25 07:08:43;;;;;;;3.65;1.73;;;18.10;46.80;;;;;;5060535;28;20176;-67
2021/04/25 07:11:08;;;;;;;2.58;1.38;;;18.10;46.70;;;;;;5059398;28;20261;-71
2021/04/25 07:13:34;;;;;;;3.03;1.55;;;18.10;46.90;;;;;;5095001;28;20257;-70
2021/04/25 07:16:00;;;;;;;4.30;1.58;;;18.20;47.00;;;;;;5060085;28;20173;-70
2021/04/25 07:18:25;;;;;;;2.67;1.60;;;18.20;47.00;;;;;;5076487;28;20174;-68
2021/04/25 07:20:54;;;;;;;2.70;1.70;;;18.20;47.00;;;;;;5076701;28;20181;-69
2021/04/25 07:23:20;;;;;;;3.83;1.73;;;18.20;47.10;;;;;;5077202;28;20201;-69
2021/04/25 07:25:46;;;;;;;3.65;1.67;;;18.20;47.20;;;;;;5076028;28;20302;-76
2021/04/25 07:28:11;;;;;;;6.22;1.67;;;18.30;47.20;;;;;;5076635;28;20668;-73
2021/04/25 07:30:37;;;;;;;2.30;1.20;;;18.40;47.20;;;;;;5094519;28;20166;-72
2021/04/25 07:33:03;;;;;;;2.22;1.48;;;18.40;47.10;;;;;;5059330;28;20316;-67
2021/04/25 07:35:29;;;;;;;1.75;1.40;;;18.40;47.10;;;;;;5076142;28;20196;-72
2021/04/25 07:37:54;;;;;;;1.85;1.20;;;18.40;47.10;;;;;;5060102;28;20166;-67
2021/04/25 07:40:20;;;;;;;2.63;1.63;;;18.40;47.30;;;;;;5075997;28;20275;-68
2021/04/25 07:42:45;;;;;;;2.95;1.83;;;18.40;47.30;;;;;;5076294;28;20181;-68
2021/04/25 07:45:15;;;;;;;2.63;1.65;;;18.40;47.40;;;;;;5094369;28;20680;-67
2021/04/25 07:47:42;;;;;;;4.75;1.55;;;18.30;46.80;;;;;;5059856;28;20253;-72
2021/04/25 07:50:08;;;;;;;3.47;1.52;;;18.20;45.70;;;;;;5059888;28;20174;-65
2021/04/25 07:52:34;;;;;;;5.43;2.28;;;18.20;46.00;;;;;;5059339;28;20170;-64
2021/04/25 07:54:59;;;;;;;2.90;1.45;;;18.30;46.30;;;;;;5075538;28;20178;-71
2021/04/25 07:57:25;;;;;;;1.85;1.42;;;18.30;46.40;;;;;;5076248;28;20177;-68
2021/04/25 07:59:50;;;;;;;2.78;1.40;;;18.40;46.30;;;;;;5093372;28;20176;-68
2021/04/25 08:02:16;;;;;;;2.33;1.17;;;18.40;46.30;;;;;;5094282;28;20178;-68
2021/04/25 08:04:42;;;;;;;2.88;1.40;;;18.40;46.30;;;;;;5093741;28;20201;-68
2021/04/25 08:07:07;;;;;;;3.00;1.40;;;18.40;46.40;;;;;;5093620;28;20165;-68
2021/04/25 08:09:33;;;;;;;4.57;1.60;;;18.40;46.50;;;;;;5075627;28;20560;-65
2021/04/25 08:11:58;;;;;;;4.18;1.42;;;18.30;46.60;;;;;;5093910;28;20180;-66
2021/04/25 08:14:24;;;;;;;6.32;1.48;;;18.30;46.60;;;;;;5075422;28;20170;-66
2021/04/25 08:16:50;;;;;;;4.00;1.55;;;18.30;46.80;;;;;;5075495;28;20641;-65
2021/04/25 08:19:15;;;;;;;1.60;1.30;;;18.30;46.90;;;;;;5042508;28;20170;-68
2021/04/25 08:21:41;;;;;;;5.00;1.30;;;18.30;46.90;;;;;;5092831;28;20197;-69
2021/04/25 08:24:07;;;;;;;3.00;1.63;;;18.40;46.90;;;;;;5074629;28;20292;-67
2021/04/25 08:26:32;;;;;;;3.70;1.55;;;18.40;46.90;;;;;;5093635;28;20172;-68
2021/04/25 08:28:58;;;;;;;2.88;1.42;;;18.40;46.90;;;;;;5074852;28;20230;-69
2021/04/25 08:31:24;;;;;;;3.38;1.55;;;18.40;47.00;;;;;;5093574;28;20174;-67
2021/04/25 08:33:50;;;;;;;3.95;1.48;;;18.50;47.10;;;;;;5093289;28;20536;-64
2021/04/25 08:36:15;;;;;;;5.40;1.38;;;18.40;47.10;;;;;;5074840;28;20659;-68
2021/04/25 08:38:42;;;;;;;3.92;1.40;;;18.40;47.20;;;;;;5075196;28;20199;-70
2021/04/25 08:41:09;;;;;;;4.60;1.40;;;18.40;47.30;;;;;;5058956;28;20177;-68
2021/04/25 08:43:34;;;;;;;2.42;1.15;;;18.40;47.40;;;;;;5058234;28;20200;-68
2021/04/25 08:46:00;;;;;;;3.47;1.35;;;18.40;47.50;;;;;;5058564;28;20162;-67
2021/04/25 08:48:29;;;;;;;2.45;0.98;;;18.40;47.50;;;;;;5058740;28;20178;-65
2021/04/25 08:50:55;;;;;;;3.42;1.30;;;18.40;47.50;;;;;;5075217;28;20251;-70
2021/04/25 08:53:21;;;;;;;1.77;1.20;;;18.40;47.50;;;;;;5075408;28;20166;-69
2021/04/25 08:55:47;;;;;;;2.67;1.40;;;18.50;47.50;;;;;;5058248;28;20260;-74
2021/04/25 08:58:13;;;;;;;3.50;1.27;;;18.40;47.50;;;;;;5074608;28;20170;-68
2021/04/25 09:00:39;;;;;;;3.33;1.20;;;18.40;47.60;;;;;;5092639;28;20177;-66
2021/04/25 09:03:04;;;;;;;4.10;1.23;;;18.40;47.60;;;;;;5092461;28;20170;-70
2021/04/25 09:05:30;;;;;;;2.17;0.95;;;18.40;47.70;;;;;;5074715;28;20170;-66
2021/04/25 09:07:59;;;;;;;5.50;1.17;;;18.40;47.80;;;;;;5092656;28;20621;-67
2021/04/25 09:10:30;;;;;;;2.70;1.00;;;18.40;47.90;;;;;;5074600;28;20170;-68
2021/04/25 09:12:56;;;;;;;2.42;1.05;;;18.40;47.90;;;;;;5058214;28;20253;-65
2021/04/25 09:15:21;;;;;;;2.20;1.40;;;18.40;47.90;;;;;;5074363;28;20581;-66
2021/04/25 09:18:00;;;;;;;2.90;1.35;;;18.40;48.00;;;;;;5091396;28;20266;-66
2021/04/25 09:20:44;;;;;;;2.60;1.30;;;18.40;48.00;;;;;;5072696;28;20173;-66
2021/04/25 09:23:14;;;;;;;1.95;1.10;;;18.40;48.70;;;;;;5075743;28;20529;-72
2021/04/25 09:25:40;;;;;;;2.63;1.13;;;18.30;48.10;;;;;;5071180;28;20166;-67
2021/04/25 09:28:10;;;;;;;2.47;1.30;;;18.40;48.20;;;;;;5057394;28;20743;-68
2021/04/25 09:30:36;;;;;;;1.63;1.23;;;18.30;48.10;;;;;;5056727;28;20632;-74
2021/04/25 09:33:09;;;;;;;3.33;1.05;;;18.40;48.80;;;;;;5091807;28;20185;-67
2021/04/25 09:35:35;;;;;;;4.40;1.20;;;18.30;48.20;;;;;;5095687;28;20535;-68
2021/04/25 09:38:11;;;;;;;2.05;1.02;;;18.30;48.10;;;;;;5096875;28;20177;-69
2021/04/25 09:40:55;;;;;;;1.58;1.02;;;18.40;48.20;;;;;;5096430;28;20527;-72
2021/04/25 09:43:21;;;;;;;2.22;1.25;;;18.40;48.20;;;;;;5096644;28;20239;-68
2021/04/25 09:45:47;;;;;;;2.10;1.30;;;18.40;48.20;;;;;;5077677;28;20198;-67
2021/04/25 09:48:32;;;;;;;2.28;1.10;;;18.40;48.20;;;;;;5078552;28;20177;-67
2021/04/25 09:51:08;;;;;;;3.90;1.15;;;18.40;48.40;;;;;;5063693;28;20168;-65
2021/04/25 09:53:37;;;;;;;2.22;1.15;;;18.40;48.40;;;;;;5077826;28;20258;-72
2021/04/25 09:56:03;;;;;;;2.22;0.90;;;18.40;48.50;;;;;;5078845;28;20248;-68
2021/04/25 09:58:29;;;;;;;1.20;0.88;;;18.40;48.30;;;;;;5061527;28;20227;-74
2021/04/25 10:00:55;;;;;;;2.42;1.00;;;18.40;48.30;;;;;;5061102;28;20170;-70
2021/04/25 10:03:22;;;;;;;1.83;1.30;;;18.40;48.30;;;;;;5061317;28;20225;-72
2021/04/25 10:06:01;;;;;;;3.33;1.60;;;18.40;48.30;;;;;;5078221;28;20166;-69
2021/04/25 10:08:30;;;;;;;1.83;1.27;;;18.40;48.30;;;;;;5077606;28;20165;-69
2021/04/25 10:10:56;;;;;;;1.55;0.90;;;18.40;48.30;;;;;;5078626;28;20170;-71
2021/04/25 10:13:24;;;;;;;2.83;1.38;;;18.40;48.40;;;;;;5061016;28;20227;-70
2021/04/25 10:15:50;;;;;;;2.80;1.02;;;18.40;48.40;;;;;;5061626;28;20165;-69
2021/04/25 10:18:17;;;;;;;3.83;1.33;;;18.40;48.40;;;;;;5078208;28;20188;-70
2021/04/25 10:20:43;;;;;;;2.05;1.20;;;18.50;48.20;;;;;;5060732;28;20170;-72
2021/04/25 10:23:08;;;;;;;3.92;1.17;;;18.50;48.20;;;;;;5061397;28;20176;-72
2021/04/25 10:25:35;;;;;;;2.97;1.00;;;18.50;48.30;;;;;;5077577;28;20628;-74
2021/04/25 10:28:06;;;;;;;3.30;1.27;;;18.50;48.20;;;;;;5060635;28;20207;-70
2021/04/25 10:30:35;;;;;;;2.20;1.00;;;18.50;48.30;;;;;;5060675;28;20181;-69
2021/04/25 10:33:01;;;;;;;4.18;1.30;;;18.50;48.30;;;;;;5061460;28;20312;-66
2021/04/25 10:35:29;;;;;;;2.33;1.10;;;18.60;48.20;;;;;;5076964;28;20170;-65
2021/04/25 10:37:54;;;;;;;4.30;1.10;;;18.60;48.20;;;;;;5061582;28;20184;-64
2021/04/25 10:40:32;;;;;;;2.50;1.15;;;18.60;48.20;;;;;;5095701;28;20582;-65
2021/04/25 10:43:10;;;;;;;2.30;1.13;;;18.50;48.30;;;;;;5077346;28;20184;-63
2021/04/25 10:45:57;;;;;;;1.67;1.38;;;18.60;48.30;;;;;;5094452;28;20181;-65
2021/04/25 10:48:27;;;;;;;1.75;0.90;;;18.60;48.20;;;;;;5077677;28;20162;-65
2021/04/25 10:50:55;;;;;;;3.30;0.90;;;18.60;48.30;;;;;;5077559;28;20257;-65
2021/04/25 10:53:29;;;;;;;2.05;1.33;;;18.60;48.20;;;;;;5077845;28;20219;-69
2021/04/25 10:56:16;;;;;;;1.90;1.10;;;18.60;48.30;;;;;;5060354;28;20177;-65
2021/04/25 10:58:43;;;;;;;3.58;1.10;;;18.60;48.30;;;;;;5095279;28;20220;-67
2021/04/25 11:01:09;;;;;;;1.98;1.17;;;18.60;48.20;;;;;;5077613;28;20174;-66
2021/04/25 11:03:37;;;;;;;1.02;0.82;;;18.60;48.20;;;;;;5076385;28;20201;-66
2021/04/25 11:06:03;;;;;;;1.45;1.10;;;18.60;48.30;;;;;;5095427;28;20181;-65
2021/04/25 11:08:32;;;;;;;3.38;0.90;;;18.60;48.30;;;;;;5077030;28;20170;-66
2021/04/25 11:11:09;;;;;;;3.13;1.10;;;18.70;48.30;;;;;;5094717;28;20252;-67
2021/04/25 11:13:44;;;;;;;4.35;1.52;;;18.60;48.30;;;;;;5078327;28;20640;-68
2021/04/25 11:16:24;;;;;;;5.30;0.90;;;18.70;48.50;;;;;;5095181;28;20180;-67
2021/04/25 11:19:06;;;;;;;2.05;0.90;;;18.70;48.30;;;;;;5076245;28;20162;-67
2021/04/25 11:24:03;;;;;;;2.60;1.38;;;18.80;48.40;;;;;;5094210;28;20300;-66
2021/04/25 11:26:41;;;;;;;1.73;1.10;;;18.70;48.30;;;;;;5094696;28;20170;-65
2021/04/25 11:29:07;;;;;;;2.08;1.10;;;18.70;48.30;;;;;;5094756;28;20343;-67
2021/04/25 11:31:45;;;;;;;1.77;1.10;;;18.70;48.40;;;;;;5076033;28;20531;-67
2021/04/25 11:34:29;;;;;;;1.70;0.93;;;18.80;48.40;;;;;;5094556;28;20184;-63
2021/04/25 11:37:01;;;;;;;2.00;1.00;;;18.80;48.40;;;;;;5076610;28;20178;-63
2021/04/25 11:39:28;;;;;;;3.40;1.25;;;18.70;48.50;;;;;;5094204;28;20158;-66
2021/04/25 11:41:54;;;;;;;2.20;1.00;;;18.70;48.30;;;;;;5060140;28;20649;-65
2021/04/25 11:44:52;;;;;;;2.20;1.35;;;18.60;48.30;;;;;;5042925;28;20300;-68
2021/04/25 11:47:19;;;;;;;2.53;1.02;;;18.60;48.10;;;;;;5077718;28;20177;-65
2021/04/25 11:49:46;;;;;;;1.20;0.80;;;18.70;47.80;;;;;;5075799;28;20203;-65
2021/04/25 11:52:15;;;;;;;1.73;1.08;;;18.80;47.80;;;;;;5059454;28;20246;-67
2021/04/25 11:54:45;;;;;;;1.88;1.10;;;18.80;47.80;;;;;;5093999;28;20170;-66
2021/04/25 11:57:11;;;;;;;1.13;0.90;;;18.80;47.70;;;;;;5076245;28;20174;-66
2021/04/25 11:59:37;;;;;;;3.00;1.50;;;18.80;47.80;;;;;;5093256;28;20242;-64
2021/04/25 12:02:09;;;;;;;1.90;0.93;;;18.70;47.90;;;;;;5042933;28;20174;-66
2021/04/25 12:04:50;;;;;;;1.65;1.10;;;18.70;48.00;;;;;;5093707;28;20212;-67
2021/04/25 12:07:31;;;;;;;3.15;0.98;;;18.70;48.10;;;;;;5093503;28;20168;-66
2021/04/25 12:09:57;;;;;;;3.55;1.20;;;18.90;47.90;;;;;;5094106;28;20162;-66
2021/04/25 12:12:22;;;;;;;3.70;1.10;;;18.90;47.80;;;;;;5075965;28;20227;-64
2021/04/25 12:14:59;;;;;;;1.75;1.20;;;19.00;47.60;;;;;;5074895;28;20672;-69
2021/04/25 12:17:24;;;;;;;1.95;1.00;;;18.90;47.80;;;;;;5076098;28;20617;-66
2021/04/25 12:19:50;;;;;;;1.20;0.90;;;18.90;48.00;;;;;;5093538;28;20174;-65
2021/04/25 12:22:15;;;;;;;4.10;1.30;;;19.00;47.90;;;;;;5092119;28;20212;-65
2021/04/25 12:24:41;;;;;;;1.55;0.93;;;19.10;47.70;;;;;;5058756;28;20259;-65
2021/04/25 12:27:06;;;;;;;2.33;1.10;;;19.10;47.80;;;;;;5058445;28;20176;-68
2021/04/25 12:29:39;;;;;;;1.50;1.02;;;19.00;47.90;;;;;;5071802;28;20218;-74
2021/04/25 12:32:04;;;;;;;1.48;0.90;;;19.10;47.90;;;;;;5055587;28;20626;-72
2021/04/25 12:34:31;;;;;;;2.03;0.90;;;19.10;47.70;;;;;;5054709;28;20183;-72
2021/04/25 12:36:59;;;;;;;3.08;1.20;;;19.10;47.60;;;;;;5055838;28;20193;-72
2021/04/25 12:39:37;;;;;;;2.75;1.30;;;19.00;47.60;;;;;;5073265;28;20170;-71
2021/04/25 12:42:03;;;;;;;1.67;0.88;;;18.90;47.60;;;;;;5071435;28;20159;-70
2021/04/25 12:44:36;;;;;;;2.05;1.20;;;18.90;47.60;;;;;;5071592;28;20275;-72
2021/04/25 12:47:02;;;;;;;3.13;1.10;;;18.80;47.60;;;;;;5073191;28;20182;-71
2021/04/25 12:49:38;;;;;;;1.50;0.90;;;18.80;47.60;;;;;;5070953;28;20630;-72